sensor_id;sensor_type;location;lat;lon;timestamp;temperature;humidity
792;DHT22;379;49.022;12.148;2022-10-17T00:00:36;14.20;99.90
792;DHT22;379;49.022;12.148;2022-10-17T00:03:03;14.30;99.90
792;DHT22;379;49.022;12.148;2022-10-17T00:05:30;14.20;99.90
792;DHT22;379;49.022;12.148;2022-10-17T00:07:57;14.20;99.90
792;DHT22;379;49.022;12.148;2022-10-17T00:10:23;14.20;99.90
792;DHT22;379;49.022;12.148;2022-10-17T00:12:51;14.20;99.90
792;DHT22;379;49.022;12.148;2022-10-17T00:15:21;14.20;99.90
792;DHT22;379;49.022;12.148;2022-10-17T00:17:49;14.20;99.90
792;DHT22;379;49.022;12.148;2022-10-17T00:20:16;14.20;99.90
792;DHT22;379;49.022;12.148;2022-10-17T00:22:43;14.20;99.90
792;DHT22;379;49.022;12.148;2022-10-17T00:25:10;14.30;99.90
792;DHT22;379;49.022;12.148;2022-10-17T00:27:38;14.30;99.90
792;DHT22;379;49.022;12.148;2022-10-17T00:30:08;14.20;99.90
792;DHT22;379;49.022;12.148;2022-10-17T00:32:35;14.20;99.90
792;DHT22;379;49.022;12.148;2022-10-17T00:35:04;14.10;99.90
792;DHT22;379;49.022;12.148;2022-10-17T00:37:31;14.10;99.90
792;DHT22;379;49.022;12.148;2022-10-17T00:39:58;14.10;99.90
792;DHT22;379;49.022;12.148;2022-10-17T00:42:25;14.10;99.90
792;DHT22;379;49.022;12.148;2022-10-17T00:45:11;14.20;99.90
792;DHT22;379;49.022;12.148;2022-10-17T00:47:39;14.20;99.90
792;DHT22;379;49.022;12.148;2022-10-17T00:50:08;14.20;99.90
792;DHT22;379;49.022;12.148;2022-10-17T00:52:35;14.10;99.90
792;DHT22;379;49.022;12.148;2022-10-17T00:55:07;14.10;99.90
792;DHT22;379;49.022;12.148;2022-10-17T00:57:34;14.10;99.90
792;DHT22;379;49.022;12.148;2022-10-17T01:00:05;14.10;99.90
792;DHT22;379;49.022;12.148;2022-10-17T01:02:32;14.10;99.90
792;DHT22;379;49.022;12.148;2022-10-17T01:04:59;14.20;99.90
792;DHT22;379;49.022;12.148;2022-10-17T01:07:28;14.20;99.90
792;DHT22;379;49.022;12.148;2022-10-17T01:09:55;14.20;99.90
792;DHT22;379;49.022;12.148;2022-10-17T01:12:24;14.10;99.90
792;DHT22;379;49.022;12.148;2022-10-17T01:15:07;14.10;99.90
792;DHT22;379;49.022;12.148;2022-10-17T01:17:45;14.00;99.90
792;DHT22;379;49.022;12.148;2022-10-17T01:20:53;13.80;99.90
792;DHT22;379;49.022;12.148;2022-10-17T01:23:36;13.70;99.90
792;DHT22;379;49.022;12.148;2022-10-17T01:26:15;13.70;99.90
792;DHT22;379;49.022;12.148;2022-10-17T01:29:20;13.60;99.90
792;DHT22;379;49.022;12.148;2022-10-17T01:32:00;13.60;99.90
792;DHT22;379;49.022;12.148;2022-10-17T01:34:30;13.60;99.90
792;DHT22;379;49.022;12.148;2022-10-17T01:37:03;13.60;99.90
792;DHT22;379;49.022;12.148;2022-10-17T01:39:38;13.50;99.90
792;DHT22;379;49.022;12.148;2022-10-17T01:42:11;13.50;99.90
792;DHT22;379;49.022;12.148;2022-10-17T01:44:45;13.40;99.90
792;DHT22;379;49.022;12.148;2022-10-17T01:47:18;13.30;99.90
792;DHT22;379;49.022;12.148;2022-10-17T01:49:46;13.10;99.90
792;DHT22;379;49.022;12.148;2022-10-17T01:52:16;12.90;99.90
792;DHT22;379;49.022;12.148;2022-10-17T01:54:46;12.80;99.90
792;DHT22;379;49.022;12.148;2022-10-17T01:57:19;12.70;99.90
792;DHT22;379;49.022;12.148;2022-10-17T01:59:51;12.70;99.90
792;DHT22;379;49.022;12.148;2022-10-17T02:02:20;12.80;99.90
792;DHT22;379;49.022;12.148;2022-10-17T02:04:50;12.80;99.90
792;DHT22;379;49.022;12.148;2022-10-17T02:07:17;12.80;99.90
792;DHT22;379;49.022;12.148;2022-10-17T02:09:44;12.70;99.90
792;DHT22;379;49.022;12.148;2022-10-17T02:12:32;12.60;99.90
792;DHT22;379;49.022;12.148;2022-10-17T02:15:13;12.50;99.90
792;DHT22;379;49.022;12.148;2022-10-17T02:17:48;12.40;99.90
792;DHT22;379;49.022;12.148;2022-10-17T02:20:22;12.40;99.90
792;DHT22;379;49.022;12.148;2022-10-17T02:22:53;12.40;99.90
792;DHT22;379;49.022;12.148;2022-10-17T02:25:29;12.30;99.90
792;DHT22;379;49.022;12.148;2022-10-17T02:28:02;12.20;99.90
792;DHT22;379;49.022;12.148;2022-10-17T02:30:34;12.20;99.90
792;DHT22;379;49.022;12.148;2022-10-17T02:33:05;12.10;99.90
792;DHT22;379;49.022;12.148;2022-10-17T02:35:37;12.10;99.90
792;DHT22;379;49.022;12.148;2022-10-17T02:38:07;12.10;99.90
792;DHT22;379;49.022;12.148;2022-10-17T02:40:36;12.00;99.90
792;DHT22;379;49.022;12.148;2022-10-17T02:43:03;11.90;99.90
792;DHT22;379;49.022;12.148;2022-10-17T02:45:31;11.70;99.90
792;DHT22;379;49.022;12.148;2022-10-17T02:48:04;11.60;99.90
792;DHT22;379;49.022;12.148;2022-10-17T02:50:41;11.60;99.90
792;DHT22;379;49.022;12.148;2022-10-17T02:53:13;11.50;99.90
792;DHT22;379;49.022;12.148;2022-10-17T02:55:45;11.50;99.90
792;DHT22;379;49.022;12.148;2022-10-17T02:58:17;11.40;99.90
792;DHT22;379;49.022;12.148;2022-10-17T03:00:45;11.40;99.90
792;DHT22;379;49.022;12.148;2022-10-17T03:03:21;11.50;99.90
792;DHT22;379;49.022;12.148;2022-10-17T03:05:48;11.50;99.90
792;DHT22;379;49.022;12.148;2022-10-17T03:08:15;11.40;99.90
792;DHT22;379;49.022;12.148;2022-10-17T03:10:42;11.30;99.90
792;DHT22;379;49.022;12.148;2022-10-17T03:13:08;11.20;99.90
792;DHT22;379;49.022;12.148;2022-10-17T03:15:35;11.10;99.90
792;DHT22;379;49.022;12.148;2022-10-17T03:18:02;11.10;99.90
792;DHT22;379;49.022;12.148;2022-10-17T03:20:31;11.10;99.90
792;DHT22;379;49.022;12.148;2022-10-17T03:22:57;11.10;99.90
792;DHT22;379;49.022;12.148;2022-10-17T03:25:24;11.00;99.90
792;DHT22;379;49.022;12.148;2022-10-17T03:27:51;10.90;99.90
792;DHT22;379;49.022;12.148;2022-10-17T03:30:18;11.00;99.90
792;DHT22;379;49.022;12.148;2022-10-17T03:32:45;11.00;99.90
792;DHT22;379;49.022;12.148;2022-10-17T03:35:11;10.90;99.90
792;DHT22;379;49.022;12.148;2022-10-17T03:37:39;10.80;99.90
792;DHT22;379;49.022;12.148;2022-10-17T03:40:06;10.70;99.90
792;DHT22;379;49.022;12.148;2022-10-17T03:42:33;10.60;99.90
792;DHT22;379;49.022;12.148;2022-10-17T03:45:00;10.60;99.90
792;DHT22;379;49.022;12.148;2022-10-17T03:47:27;10.70;99.90
792;DHT22;379;49.022;12.148;2022-10-17T03:49:54;10.70;99.90
792;DHT22;379;49.022;12.148;2022-10-17T03:52:20;10.70;99.90
792;DHT22;379;49.022;12.148;2022-10-17T03:54:50;10.70;99.90
792;DHT22;379;49.022;12.148;2022-10-17T03:57:17;10.60;99.90
792;DHT22;379;49.022;12.148;2022-10-17T03:59:43;10.60;99.90
792;DHT22;379;49.022;12.148;2022-10-17T04:02:10;10.50;99.90
792;DHT22;379;49.022;12.148;2022-10-17T04:04:37;10.50;99.90
792;DHT22;379;49.022;12.148;2022-10-17T04:07:03;10.40;99.90
792;DHT22;379;49.022;12.148;2022-10-17T04:09:30;10.30;99.90
792;DHT22;379;49.022;12.148;2022-10-17T04:11:58;10.30;99.90
792;DHT22;379;49.022;12.148;2022-10-17T04:14:25;10.40;99.90
792;DHT22;379;49.022;12.148;2022-10-17T04:16:52;10.50;99.90
792;DHT22;379;49.022;12.148;2022-10-17T04:19:19;10.50;99.90
792;DHT22;379;49.022;12.148;2022-10-17T04:21:45;10.50;99.90
792;DHT22;379;49.022;12.148;2022-10-17T04:24:12;10.50;99.90
792;DHT22;379;49.022;12.148;2022-10-17T04:26:39;10.40;99.90
792;DHT22;379;49.022;12.148;2022-10-17T04:29:07;10.20;99.90
792;DHT22;379;49.022;12.148;2022-10-17T04:31:34;10.10;99.90
792;DHT22;379;49.022;12.148;2022-10-17T04:34:00;10.10;99.90
792;DHT22;379;49.022;12.148;2022-10-17T04:36:27;10.00;99.90
792;DHT22;379;49.022;12.148;2022-10-17T04:38:54;9.90;99.90
792;DHT22;379;49.022;12.148;2022-10-17T04:41:20;9.90;99.90
792;DHT22;379;49.022;12.148;2022-10-17T04:43:47;9.90;99.90
792;DHT22;379;49.022;12.148;2022-10-17T04:46:15;9.80;99.90
792;DHT22;379;49.022;12.148;2022-10-17T04:48:42;9.80;99.90
792;DHT22;379;49.022;12.148;2022-10-17T04:51:11;9.70;99.90
792;DHT22;379;49.022;12.148;2022-10-17T04:53:39;9.70;99.90
792;DHT22;379;49.022;12.148;2022-10-17T04:56:09;9.70;99.90
792;DHT22;379;49.022;12.148;2022-10-17T04:58:36;9.70;99.90
792;DHT22;379;49.022;12.148;2022-10-17T05:01:05;9.60;99.90
792;DHT22;379;49.022;12.148;2022-10-17T05:03:33;9.60;99.90
792;DHT22;379;49.022;12.148;2022-10-17T05:06:03;9.40;99.90
792;DHT22;379;49.022;12.148;2022-10-17T05:08:30;9.40;99.90
792;DHT22;379;49.022;12.148;2022-10-17T05:10:56;9.30;99.90
792;DHT22;379;49.022;12.148;2022-10-17T05:13:23;9.30;99.90
792;DHT22;379;49.022;12.148;2022-10-17T05:15:50;9.30;99.90
792;DHT22;379;49.022;12.148;2022-10-17T05:18:17;9.30;99.90
792;DHT22;379;49.022;12.148;2022-10-17T05:20:45;9.20;99.90
792;DHT22;379;49.022;12.148;2022-10-17T05:23:11;9.20;99.90
792;DHT22;379;49.022;12.148;2022-10-17T05:25:38;9.20;99.90
792;DHT22;379;49.022;12.148;2022-10-17T05:28:05;9.30;99.90
792;DHT22;379;49.022;12.148;2022-10-17T05:30:31;9.30;99.90
792;DHT22;379;49.022;12.148;2022-10-17T05:32:58;9.30;99.90
792;DHT22;379;49.022;12.148;2022-10-17T05:35:25;9.20;99.90
792;DHT22;379;49.022;12.148;2022-10-17T05:37:53;9.10;99.90
792;DHT22;379;49.022;12.148;2022-10-17T05:40:19;9.10;99.90
792;DHT22;379;49.022;12.148;2022-10-17T05:42:46;9.10;99.90
792;DHT22;379;49.022;12.148;2022-10-17T05:45:14;9.10;99.90
792;DHT22;379;49.022;12.148;2022-10-17T05:47:40;9.10;99.90
792;DHT22;379;49.022;12.148;2022-10-17T05:50:08;9.20;99.90
792;DHT22;379;49.022;12.148;2022-10-17T05:52:35;9.20;99.90
792;DHT22;379;49.022;12.148;2022-10-17T05:55:04;9.30;99.90
792;DHT22;379;49.022;12.148;2022-10-17T05:57:31;9.30;99.90
792;DHT22;379;49.022;12.148;2022-10-17T05:59:57;9.40;99.90
792;DHT22;379;49.022;12.148;2022-10-17T06:02:25;9.30;99.90
792;DHT22;379;49.022;12.148;2022-10-17T06:04:52;9.30;99.90
792;DHT22;379;49.022;12.148;2022-10-17T06:07:19;9.30;99.90
792;DHT22;379;49.022;12.148;2022-10-17T06:09:45;9.40;99.90
792;DHT22;379;49.022;12.148;2022-10-17T06:12:14;9.40;99.90
792;DHT22;379;49.022;12.148;2022-10-17T06:14:40;9.40;99.90
792;DHT22;379;49.022;12.148;2022-10-17T06:17:07;9.50;99.90
792;DHT22;379;49.022;12.148;2022-10-17T06:19:34;9.50;99.90
792;DHT22;379;49.022;12.148;2022-10-17T06:22:01;9.50;99.90
792;DHT22;379;49.022;12.148;2022-10-17T06:24:28;9.60;99.90
792;DHT22;379;49.022;12.148;2022-10-17T06:26:54;9.60;99.90
792;DHT22;379;49.022;12.148;2022-10-17T06:29:23;9.80;99.90
792;DHT22;379;49.022;12.148;2022-10-17T06:31:50;9.80;99.90
792;DHT22;379;49.022;12.148;2022-10-17T06:34:17;9.90;99.90
792;DHT22;379;49.022;12.148;2022-10-17T06:36:43;10.00;99.90
792;DHT22;379;49.022;12.148;2022-10-17T06:39:10;10.00;99.90
792;DHT22;379;49.022;12.148;2022-10-17T06:41:37;10.10;99.90
792;DHT22;379;49.022;12.148;2022-10-17T06:44:05;10.20;99.90
792;DHT22;379;49.022;12.148;2022-10-17T06:46:37;10.30;99.90
792;DHT22;379;49.022;12.148;2022-10-17T06:49:04;10.40;99.90
792;DHT22;379;49.022;12.148;2022-10-17T06:51:33;10.50;99.90
792;DHT22;379;49.022;12.148;2022-10-17T06:54:00;10.70;99.90
792;DHT22;379;49.022;12.148;2022-10-17T06:56:27;10.80;99.90
792;DHT22;379;49.022;12.148;2022-10-17T06:58:54;11.00;99.90
792;DHT22;379;49.022;12.148;2022-10-17T07:01:20;11.20;99.90
792;DHT22;379;49.022;12.148;2022-10-17T07:03:49;11.40;99.90
792;DHT22;379;49.022;12.148;2022-10-17T07:06:16;11.50;99.90
792;DHT22;379;49.022;12.148;2022-10-17T07:08:44;11.70;99.90
792;DHT22;379;49.022;12.148;2022-10-17T07:11:13;11.80;99.90
792;DHT22;379;49.022;12.148;2022-10-17T07:13:40;11.90;99.90
792;DHT22;379;49.022;12.148;2022-10-17T07:16:07;12.00;99.90
792;DHT22;379;49.022;12.148;2022-10-17T07:18:34;12.10;99.90
792;DHT22;379;49.022;12.148;2022-10-17T07:21:03;12.20;99.90
792;DHT22;379;49.022;12.148;2022-10-17T07:23:30;12.30;99.90
792;DHT22;379;49.022;12.148;2022-10-17T07:25:59;12.40;99.90
792;DHT22;379;49.022;12.148;2022-10-17T07:28:26;12.60;99.90
792;DHT22;379;49.022;12.148;2022-10-17T07:30:53;12.70;99.90
792;DHT22;379;49.022;12.148;2022-10-17T07:33:20;12.70;99.90
792;DHT22;379;49.022;12.148;2022-10-17T07:35:46;13.00;99.90
792;DHT22;379;49.022;12.148;2022-10-17T07:38:14;13.10;99.90
792;DHT22;379;49.022;12.148;2022-10-17T07:40:41;13.20;99.90
792;DHT22;379;49.022;12.148;2022-10-17T07:43:07;13.10;99.90
792;DHT22;379;49.022;12.148;2022-10-17T07:45:34;13.00;99.90
792;DHT22;379;49.022;12.148;2022-10-17T07:48:01;12.90;99.90
792;DHT22;379;49.022;12.148;2022-10-17T07:50:28;12.90;99.90
792;DHT22;379;49.022;12.148;2022-10-17T07:52:55;13.00;99.90
792;DHT22;379;49.022;12.148;2022-10-17T07:55:24;13.00;99.90
792;DHT22;379;49.022;12.148;2022-10-17T07:57:50;13.10;99.90
792;DHT22;379;49.022;12.148;2022-10-17T08:00:17;13.40;99.90
792;DHT22;379;49.022;12.148;2022-10-17T08:02:44;13.30;99.90
792;DHT22;379;49.022;12.148;2022-10-17T08:05:10;13.20;99.90
792;DHT22;379;49.022;12.148;2022-10-17T08:07:37;13.10;99.90
792;DHT22;379;49.022;12.148;2022-10-17T08:10:05;12.90;99.90
792;DHT22;379;49.022;12.148;2022-10-17T08:12:33;12.80;99.90
792;DHT22;379;49.022;12.148;2022-10-17T08:15:00;12.80;99.90
792;DHT22;379;49.022;12.148;2022-10-17T08:17:27;12.80;99.90
792;DHT22;379;49.022;12.148;2022-10-17T08:19:54;12.90;99.90
792;DHT22;379;49.022;12.148;2022-10-17T08:22:21;13.00;99.90
792;DHT22;379;49.022;12.148;2022-10-17T08:24:47;13.10;99.90
792;DHT22;379;49.022;12.148;2022-10-17T08:27:14;13.10;99.90
792;DHT22;379;49.022;12.148;2022-10-17T08:29:47;13.10;99.90
792;DHT22;379;49.022;12.148;2022-10-17T08:32:17;13.10;99.90
792;DHT22;379;49.022;12.148;2022-10-17T08:34:44;13.20;99.90
792;DHT22;379;49.022;12.148;2022-10-17T08:37:11;13.30;99.90
792;DHT22;379;49.022;12.148;2022-10-17T08:39:39;13.40;99.90
792;DHT22;379;49.022;12.148;2022-10-17T08:42:31;13.50;99.90
792;DHT22;379;49.022;12.148;2022-10-17T08:45:09;13.60;99.90
792;DHT22;379;49.022;12.148;2022-10-17T08:47:41;13.70;99.90
792;DHT22;379;49.022;12.148;2022-10-17T08:50:12;13.80;99.90
792;DHT22;379;49.022;12.148;2022-10-17T08:52:43;14.00;99.90
792;DHT22;379;49.022;12.148;2022-10-17T08:55:14;14.10;99.90
792;DHT22;379;49.022;12.148;2022-10-17T08:57:41;14.20;99.90
792;DHT22;379;49.022;12.148;2022-10-17T09:00:16;14.30;99.90
792;DHT22;379;49.022;12.148;2022-10-17T09:02:53;14.40;99.90
792;DHT22;379;49.022;12.148;2022-10-17T09:05:32;14.50;99.90
792;DHT22;379;49.022;12.148;2022-10-17T09:08:11;14.60;99.90
792;DHT22;379;49.022;12.148;2022-10-17T09:10:46;14.70;99.90
792;DHT22;379;49.022;12.148;2022-10-17T09:13:29;14.90;99.90
792;DHT22;379;49.022;12.148;2022-10-17T09:16:08;14.90;99.90
792;DHT22;379;49.022;12.148;2022-10-17T09:18:38;15.10;99.90
792;DHT22;379;49.022;12.148;2022-10-17T09:21:16;15.20;99.90
792;DHT22;379;49.022;12.148;2022-10-17T09:23:47;15.20;99.90
792;DHT22;379;49.022;12.148;2022-10-17T09:26:15;15.30;99.90
792;DHT22;379;49.022;12.148;2022-10-17T09:28:51;15.40;99.90
792;DHT22;379;49.022;12.148;2022-10-17T09:31:22;15.60;99.90
792;DHT22;379;49.022;12.148;2022-10-17T09:33:50;15.60;99.90
792;DHT22;379;49.022;12.148;2022-10-17T09:36:19;15.70;99.90
792;DHT22;379;49.022;12.148;2022-10-17T09:38:48;15.80;99.90
792;DHT22;379;49.022;12.148;2022-10-17T09:41:18;15.80;99.90
792;DHT22;379;49.022;12.148;2022-10-17T09:43:45;15.90;99.90
792;DHT22;379;49.022;12.148;2022-10-17T09:46:18;16.00;99.90
792;DHT22;379;49.022;12.148;2022-10-17T09:48:54;16.00;99.90
792;DHT22;379;49.022;12.148;2022-10-17T09:51:22;16.10;99.90
792;DHT22;379;49.022;12.148;2022-10-17T09:53:53;16.20;99.90
792;DHT22;379;49.022;12.148;2022-10-17T09:56:21;16.40;99.90
792;DHT22;379;49.022;12.148;2022-10-17T09:58:49;16.50;99.90
792;DHT22;379;49.022;12.148;2022-10-17T10:01:19;16.50;99.90
792;DHT22;379;49.022;12.148;2022-10-17T10:03:46;16.60;99.90
792;DHT22;379;49.022;12.148;2022-10-17T10:06:16;16.60;99.90
792;DHT22;379;49.022;12.148;2022-10-17T10:08:51;16.70;99.90
792;DHT22;379;49.022;12.148;2022-10-17T10:11:22;16.80;99.90
792;DHT22;379;49.022;12.148;2022-10-17T10:13:50;16.80;99.90
792;DHT22;379;49.022;12.148;2022-10-17T10:16:21;16.90;99.90
792;DHT22;379;49.022;12.148;2022-10-17T10:18:50;16.90;99.90
792;DHT22;379;49.022;12.148;2022-10-17T10:21:19;17.00;99.90
792;DHT22;379;49.022;12.148;2022-10-17T10:24:03;17.00;99.90
792;DHT22;379;49.022;12.148;2022-10-17T10:26:34;17.10;99.90
792;DHT22;379;49.022;12.148;2022-10-17T10:29:06;17.10;99.90
792;DHT22;379;49.022;12.148;2022-10-17T10:31:36;17.20;99.90
792;DHT22;379;49.022;12.148;2022-10-17T10:34:14;17.30;99.90
792;DHT22;379;49.022;12.148;2022-10-17T10:36:46;17.30;99.90
792;DHT22;379;49.022;12.148;2022-10-17T10:39:25;17.40;99.90
792;DHT22;379;49.022;12.148;2022-10-17T10:41:53;17.40;99.90
792;DHT22;379;49.022;12.148;2022-10-17T10:44:23;17.50;99.90
792;DHT22;379;49.022;12.148;2022-10-17T10:47:06;17.50;99.90
792;DHT22;379;49.022;12.148;2022-10-17T10:49:33;17.60;99.90
792;DHT22;379;49.022;12.148;2022-10-17T10:52:02;17.60;99.90
792;DHT22;379;49.022;12.148;2022-10-17T10:54:33;17.70;99.90
792;DHT22;379;49.022;12.148;2022-10-17T10:57:03;17.70;99.90
792;DHT22;379;49.022;12.148;2022-10-17T10:59:35;17.70;99.90
792;DHT22;379;49.022;12.148;2022-10-17T11:02:20;17.80;99.90
792;DHT22;379;49.022;12.148;2022-10-17T11:04:53;17.90;99.90
792;DHT22;379;49.022;12.148;2022-10-17T11:07:25;17.90;99.90
792;DHT22;379;49.022;12.148;2022-10-17T11:09:56;18.00;99.90
792;DHT22;379;49.022;12.148;2022-10-17T11:12:28;18.00;99.90
792;DHT22;379;49.022;12.148;2022-10-17T11:15:02;18.10;99.90
792;DHT22;379;49.022;12.148;2022-10-17T11:17:35;18.10;99.90
792;DHT22;379;49.022;12.148;2022-10-17T11:20:14;18.20;99.90
792;DHT22;379;49.022;12.148;2022-10-17T11:22:46;18.20;99.90
792;DHT22;379;49.022;12.148;2022-10-17T11:25:21;18.20;99.90
792;DHT22;379;49.022;12.148;2022-10-17T11:27:53;18.20;99.90
792;DHT22;379;49.022;12.148;2022-10-17T11:30:20;18.30;99.90
792;DHT22;379;49.022;12.148;2022-10-17T11:32:52;18.40;99.90
792;DHT22;379;49.022;12.148;2022-10-17T11:35:23;18.50;99.90
792;DHT22;379;49.022;12.148;2022-10-17T11:37:58;18.50;99.90
792;DHT22;379;49.022;12.148;2022-10-17T11:40:30;18.60;99.90
792;DHT22;379;49.022;12.148;2022-10-17T11:42:59;18.60;99.90
792;DHT22;379;49.022;12.148;2022-10-17T11:45:29;18.70;99.90
792;DHT22;379;49.022;12.148;2022-10-17T11:48:02;18.70;99.90
792;DHT22;379;49.022;12.148;2022-10-17T11:50:32;18.80;99.90
792;DHT22;379;49.022;12.148;2022-10-17T11:53:04;18.70;99.90
792;DHT22;379;49.022;12.148;2022-10-17T11:55:35;18.80;99.90
792;DHT22;379;49.022;12.148;2022-10-17T11:58:23;18.80;99.90
792;DHT22;379;49.022;12.148;2022-10-17T12:01:03;18.80;99.90
792;DHT22;379;49.022;12.148;2022-10-17T12:03:45;18.80;99.90
792;DHT22;379;49.022;12.148;2022-10-17T12:06:19;18.80;99.90
792;DHT22;379;49.022;12.148;2022-10-17T12:08:52;18.80;99.90
792;DHT22;379;49.022;12.148;2022-10-17T12:11:36;18.70;99.90
792;DHT22;379;49.022;12.148;2022-10-17T12:14:33;18.70;99.90
792;DHT22;379;49.022;12.148;2022-10-17T12:17:01;18.70;99.90
792;DHT22;379;49.022;12.148;2022-10-17T12:19:33;18.70;99.90
792;DHT22;379;49.022;12.148;2022-10-17T12:22:18;18.70;99.90
792;DHT22;379;49.022;12.148;2022-10-17T12:24:56;18.90;99.90
792;DHT22;379;49.022;12.148;2022-10-17T12:27:35;19.00;99.90
792;DHT22;379;49.022;12.148;2022-10-17T12:30:06;19.10;99.90
792;DHT22;379;49.022;12.148;2022-10-17T12:32:33;19.10;99.90
792;DHT22;379;49.022;12.148;2022-10-17T12:35:00;19.20;99.90
792;DHT22;379;49.022;12.148;2022-10-17T12:37:58;19.20;99.90
792;DHT22;379;49.022;12.148;2022-10-17T12:40:50;19.20;99.90
792;DHT22;379;49.022;12.148;2022-10-17T12:43:37;19.20;99.90
792;DHT22;379;49.022;12.148;2022-10-17T12:46:08;19.20;99.90
792;DHT22;379;49.022;12.148;2022-10-17T12:48:57;19.20;99.90
792;DHT22;379;49.022;12.148;2022-10-17T12:51:24;19.20;99.90
792;DHT22;379;49.022;12.148;2022-10-17T12:53:57;19.20;99.90
792;DHT22;379;49.022;12.148;2022-10-17T12:56:34;19.20;99.90
792;DHT22;379;49.022;12.148;2022-10-17T12:59:07;19.20;99.90
792;DHT22;379;49.022;12.148;2022-10-17T13:01:37;19.20;99.90
792;DHT22;379;49.022;12.148;2022-10-17T13:04:05;19.20;99.90
792;DHT22;379;49.022;12.148;2022-10-17T13:06:38;19.20;99.90
792;DHT22;379;49.022;12.148;2022-10-17T13:09:19;19.30;99.90
792;DHT22;379;49.022;12.148;2022-10-17T13:11:49;19.30;99.90
792;DHT22;379;49.022;12.148;2022-10-17T13:14:18;19.40;99.90
792;DHT22;379;49.022;12.148;2022-10-17T13:16:51;19.40;99.80
792;DHT22;379;49.022;12.148;2022-10-17T13:19:20;19.60;99.00
792;DHT22;379;49.022;12.148;2022-10-17T13:21:51;19.60;98.40
792;DHT22;379;49.022;12.148;2022-10-17T13:24:22;19.70;97.80
792;DHT22;379;49.022;12.148;2022-10-17T13:26:50;19.80;97.80
792;DHT22;379;49.022;12.148;2022-10-17T13:29:17;19.80;96.80
792;DHT22;379;49.022;12.148;2022-10-17T13:31:51;19.90;97.50
792;DHT22;379;49.022;12.148;2022-10-17T13:34:21;19.90;96.70
792;DHT22;379;49.022;12.148;2022-10-17T13:36:50;19.90;96.30
792;DHT22;379;49.022;12.148;2022-10-17T13:39:19;19.90;96.70
792;DHT22;379;49.022;12.148;2022-10-17T13:41:47;20.00;96.40
792;DHT22;379;49.022;12.148;2022-10-17T13:44:20;20.00;95.90
792;DHT22;379;49.022;12.148;2022-10-17T13:46:48;20.00;96.40
792;DHT22;379;49.022;12.148;2022-10-17T13:49:20;20.10;96.60
792;DHT22;379;49.022;12.148;2022-10-17T13:51:50;20.10;96.20
792;DHT22;379;49.022;12.148;2022-10-17T13:54:31;20.20;96.30
792;DHT22;379;49.022;12.148;2022-10-17T13:56:59;20.20;96.10
792;DHT22;379;49.022;12.148;2022-10-17T13:59:33;20.30;96.00
792;DHT22;379;49.022;12.148;2022-10-17T14:02:02;20.30;96.10
792;DHT22;379;49.022;12.148;2022-10-17T14:04:30;20.30;96.30
792;DHT22;379;49.022;12.148;2022-10-17T14:06:57;20.30;95.70
792;DHT22;379;49.022;12.148;2022-10-17T14:09:25;20.30;96.30
792;DHT22;379;49.022;12.148;2022-10-17T14:11:59;20.20;96.20
792;DHT22;379;49.022;12.148;2022-10-17T14:14:28;20.10;95.80
792;DHT22;379;49.022;12.148;2022-10-17T14:16:55;20.00;96.20
792;DHT22;379;49.022;12.148;2022-10-17T14:19:25;19.90;96.40
792;DHT22;379;49.022;12.148;2022-10-17T14:21:53;19.80;96.70
792;DHT22;379;49.022;12.148;2022-10-17T14:24:27;19.70;96.60
792;DHT22;379;49.022;12.148;2022-10-17T14:26:55;19.60;96.80
792;DHT22;379;49.022;12.148;2022-10-17T14:29:24;19.60;96.90
792;DHT22;379;49.022;12.148;2022-10-17T14:32:02;19.60;96.40
792;DHT22;379;49.022;12.148;2022-10-17T14:34:32;19.60;96.50
792;DHT22;379;49.022;12.148;2022-10-17T14:36:59;19.50;96.90
792;DHT22;379;49.022;12.148;2022-10-17T14:39:27;19.50;96.60
792;DHT22;379;49.022;12.148;2022-10-17T14:41:54;19.50;96.60
792;DHT22;379;49.022;12.148;2022-10-17T14:44:24;19.50;96.30
792;DHT22;379;49.022;12.148;2022-10-17T14:46:54;19.50;96.40
792;DHT22;379;49.022;12.148;2022-10-17T14:49:31;19.50;96.40
792;DHT22;379;49.022;12.148;2022-10-17T14:52:28;19.50;96.40
792;DHT22;379;49.022;12.148;2022-10-17T14:54:56;19.50;96.40
792;DHT22;379;49.022;12.148;2022-10-17T14:57:25;19.50;96.10
792;DHT22;379;49.022;12.148;2022-10-17T14:59:53;19.40;96.00
792;DHT22;379;49.022;12.148;2022-10-17T15:02:20;19.40;95.80
792;DHT22;379;49.022;12.148;2022-10-17T15:04:49;19.30;95.90
792;DHT22;379;49.022;12.148;2022-10-17T15:07:16;19.20;96.10
792;DHT22;379;49.022;12.148;2022-10-17T15:09:44;19.20;96.30
792;DHT22;379;49.022;12.148;2022-10-17T15:12:14;19.10;96.00
792;DHT22;379;49.022;12.148;2022-10-17T15:14:41;19.10;95.80
792;DHT22;379;49.022;12.148;2022-10-17T15:17:12;19.10;96.00
792;DHT22;379;49.022;12.148;2022-10-17T15:19:40;19.10;96.00
792;DHT22;379;49.022;12.148;2022-10-17T15:22:08;19.10;96.10
792;DHT22;379;49.022;12.148;2022-10-17T15:24:35;19.00;96.50
792;DHT22;379;49.022;12.148;2022-10-17T15:27:02;18.90;96.50
792;DHT22;379;49.022;12.148;2022-10-17T15:29:28;18.90;96.40
792;DHT22;379;49.022;12.148;2022-10-17T15:31:55;18.90;96.40
792;DHT22;379;49.022;12.148;2022-10-17T15:34:22;18.80;96.40
792;DHT22;379;49.022;12.148;2022-10-17T15:36:52;18.70;96.30
792;DHT22;379;49.022;12.148;2022-10-17T15:39:20;18.70;96.30
792;DHT22;379;49.022;12.148;2022-10-17T15:41:47;18.70;96.50
792;DHT22;379;49.022;12.148;2022-10-17T15:44:14;18.60;96.70
792;DHT22;379;49.022;12.148;2022-10-17T15:46:41;18.40;96.90
792;DHT22;379;49.022;12.148;2022-10-17T15:49:11;18.30;97.50
792;DHT22;379;49.022;12.148;2022-10-17T15:51:38;18.10;97.80
792;DHT22;379;49.022;12.148;2022-10-17T15:54:05;17.90;98.30
792;DHT22;379;49.022;12.148;2022-10-17T15:56:36;17.80;98.70
792;DHT22;379;49.022;12.148;2022-10-17T15:59:05;17.60;99.10
792;DHT22;379;49.022;12.148;2022-10-17T16:01:32;17.40;99.60
792;DHT22;379;49.022;12.148;2022-10-17T16:03:59;17.20;99.90
792;DHT22;379;49.022;12.148;2022-10-17T16:06:26;17.00;99.90
792;DHT22;379;49.022;12.148;2022-10-17T16:08:53;16.80;99.90
792;DHT22;379;49.022;12.148;2022-10-17T16:11:26;16.80;99.90
792;DHT22;379;49.022;12.148;2022-10-17T16:13:57;16.70;99.90
792;DHT22;379;49.022;12.148;2022-10-17T16:16:24;16.60;99.90
792;DHT22;379;49.022;12.148;2022-10-17T16:18:51;16.50;99.90
792;DHT22;379;49.022;12.148;2022-10-17T16:21:19;16.40;99.90
792;DHT22;379;49.022;12.148;2022-10-17T16:23:47;16.40;99.90
792;DHT22;379;49.022;12.148;2022-10-17T16:26:14;16.30;99.90
792;DHT22;379;49.022;12.148;2022-10-17T16:28:41;16.20;99.90
792;DHT22;379;49.022;12.148;2022-10-17T16:31:18;16.10;99.90
792;DHT22;379;49.022;12.148;2022-10-17T16:33:45;16.00;99.90
792;DHT22;379;49.022;12.148;2022-10-17T16:36:13;15.90;99.90
792;DHT22;379;49.022;12.148;2022-10-17T16:38:39;15.80;99.90